createdAt,value
2018-06-28T00:00:21.938Z,16.50
2018-06-28T00:00:55.794Z,16.50
2018-06-28T00:01:30.287Z,16.50
2018-06-28T00:02:04.177Z,16.50
2018-06-28T00:02:38.360Z,16.50
2018-06-28T00:03:12.585Z,16.50
2018-06-28T00:03:46.461Z,16.50
2018-06-28T00:04:20.318Z,16.50
2018-06-28T00:04:54.654Z,16.50
2018-06-28T00:05:28.511Z,16.50
2018-06-28T00:06:02.699Z,16.50
2018-06-28T00:06:36.874Z,16.50
2018-06-28T00:07:10.742Z,16.50
2018-06-28T00:07:44.636Z,16.50
2018-06-28T00:08:18.895Z,16.50
2018-06-28T00:08:52.788Z,16.50
2018-06-28T00:09:26.835Z,16.50
2018-06-28T00:10:00.696Z,16.50
2018-06-28T00:10:34.916Z,16.50
2018-06-28T00:11:09.055Z,16.50
2018-06-28T00:11:42.928Z,16.50
2018-06-28T00:12:16.846Z,16.50
2018-06-28T00:12:50.701Z,16.50
2018-06-28T00:13:24.594Z,16.50
2018-06-28T00:13:59.162Z,16.50
2018-06-28T00:14:33.289Z,16.50
2018-06-28T00:15:07.509Z,16.50
2018-06-28T00:15:41.912Z,16.50
2018-06-28T00:16:16.081Z,16.50
2018-06-28T00:16:50.207Z,16.50
2018-06-28T00:17:24.375Z,16.50
2018-06-28T00:17:58.549Z,16.50
2018-06-28T00:18:32.672Z,16.50
2018-06-28T00:19:07.241Z,16.50
2018-06-28T00:19:41.093Z,16.50
2018-06-28T00:20:14.947Z,16.50
2018-06-28T00:20:50.195Z,16.50
2018-06-28T00:21:24.067Z,16.50
2018-06-28T00:21:57.907Z,16.50
2018-06-28T00:22:31.854Z,16.50
2018-06-28T00:23:06.547Z,16.50
2018-06-28T00:23:40.725Z,16.50
2018-06-28T00:24:14.906Z,16.50
2018-06-28T00:24:49.347Z,16.50
2018-06-28T00:25:23.257Z,16.50
2018-06-28T00:25:57.117Z,16.50
2018-06-28T00:26:30.971Z,16.50
2018-06-28T00:27:04.833Z,16.50
2018-06-28T00:27:38.675Z,16.50
2018-06-28T00:28:12.853Z,16.50
2018-06-28T00:28:47.043Z,16.50
2018-06-28T00:29:21.230Z,16.50
2018-06-28T00:29:55.093Z,16.50
2018-06-28T00:30:29.341Z,16.50
2018-06-28T00:31:03.527Z,16.50
2018-06-28T00:31:37.638Z,16.50
2018-06-28T00:32:11.471Z,16.50
2018-06-28T00:32:45.655Z,16.50
2018-06-28T00:33:19.747Z,16.50
2018-06-28T00:33:54.305Z,16.50
2018-06-28T00:34:28.461Z,16.50
2018-06-28T00:35:02.355Z,16.60
2018-06-28T00:35:36.179Z,16.60
2018-06-28T00:36:10.029Z,16.60
2018-06-28T00:36:43.865Z,16.60
2018-06-28T00:37:18.093Z,16.60
2018-06-28T00:37:52.594Z,16.50
2018-06-28T00:38:27.057Z,16.50
2018-06-28T00:39:01.323Z,16.60
2018-06-28T00:39:35.149Z,16.60
2018-06-28T00:40:09.035Z,16.60
2018-06-28T00:40:43.236Z,16.60
2018-06-28T00:41:17.429Z,16.60
2018-06-28T00:41:51.606Z,16.60
2018-06-28T00:42:25.761Z,16.60
2018-06-28T00:42:59.955Z,16.60
2018-06-28T00:43:33.805Z,16.60
2018-06-28T00:44:08.559Z,16.60
2018-06-28T00:44:42.419Z,16.60
2018-06-28T00:45:16.943Z,16.60
2018-06-28T00:45:50.814Z,16.60
2018-06-28T00:46:25.061Z,16.60
2018-06-28T00:46:59.261Z,16.60
2018-06-28T00:47:33.453Z,16.60
2018-06-28T00:48:07.653Z,16.60
2018-06-28T00:48:41.571Z,16.60
2018-06-28T00:49:15.484Z,16.60
2018-06-28T00:49:49.353Z,16.60
2018-06-28T00:50:23.203Z,16.60
2018-06-28T00:50:57.395Z,16.60
2018-06-28T00:51:31.923Z,16.60
2018-06-28T00:52:06.093Z,16.60
2018-06-28T00:52:40.246Z,16.60
2018-06-28T00:53:14.431Z,16.60
2018-06-28T00:53:48.288Z,16.60
2018-06-28T00:54:22.501Z,16.60
2018-06-28T00:54:56.691Z,16.60
2018-06-28T00:55:31.209Z,16.60
2018-06-28T00:56:05.401Z,16.60
2018-06-28T00:56:39.249Z,16.60
2018-06-28T00:57:13.466Z,16.60
2018-06-28T00:57:47.621Z,16.60
2018-06-28T00:58:21.813Z,16.60
2018-06-28T00:58:55.918Z,16.60
2018-06-28T00:59:29.791Z,16.60
2018-06-28T01:00:03.637Z,16.60
2018-06-28T01:00:37.803Z,16.60
2018-06-28T01:01:11.857Z,16.60
2018-06-28T01:01:45.702Z,16.60
2018-06-28T01:02:19.887Z,16.50
2018-06-28T01:02:53.731Z,16.60
2018-06-28T01:03:27.602Z,16.60
2018-06-28T01:04:02.011Z,16.50
2018-06-28T01:04:35.920Z,16.50
2018-06-28T01:05:10.085Z,16.60
2018-06-28T01:05:44.476Z,16.60
2018-06-28T01:06:18.336Z,16.60
2018-06-28T01:06:52.505Z,16.60
2018-06-28T01:07:26.609Z,16.60
2018-06-28T01:08:01.011Z,16.60
2018-06-28T01:08:34.839Z,16.60
2018-06-28T01:09:10.249Z,16.60
2018-06-28T01:09:44.417Z,16.60
2018-06-28T01:10:18.247Z,16.50
2018-06-28T01:10:52.085Z,16.50
2018-06-28T01:11:26.261Z,16.50
2018-06-28T01:12:00.392Z,16.50
2018-06-28T01:12:34.257Z,16.50
2018-06-28T01:13:08.796Z,16.50
2018-06-28T01:13:42.969Z,16.50
2018-06-28T01:14:16.878Z,16.50
2018-06-28T01:14:51.055Z,16.50
2018-06-28T01:15:24.881Z,16.50
2018-06-28T01:15:59.037Z,16.50
2018-06-28T01:16:33.145Z,16.50
2018-06-28T01:17:07.316Z,16.50
2018-06-28T01:17:41.152Z,16.50
2018-06-28T01:18:15.007Z,16.50
2018-06-28T01:18:48.857Z,16.50
2018-06-28T01:19:22.680Z,16.50
2018-06-28T01:19:57.235Z,16.50
2018-06-28T01:20:31.069Z,16.50
2018-06-28T01:21:05.095Z,16.50
2018-06-28T01:21:39.295Z,16.50
2018-06-28T01:22:13.476Z,16.50
2018-06-28T01:22:47.317Z,16.50
2018-06-28T01:23:21.172Z,16.50
2018-06-28T01:23:55.004Z,16.50
2018-06-28T01:24:29.503Z,16.50
2018-06-28T01:25:03.383Z,16.50
2018-06-28T01:25:37.219Z,16.50
2018-06-28T01:26:11.411Z,16.50
2018-06-28T01:26:45.433Z,16.50
2018-06-28T01:27:19.595Z,16.50
2018-06-28T01:27:53.430Z,16.50
2018-06-28T01:28:27.609Z,16.50
2018-06-28T01:29:01.967Z,16.50
2018-06-28T01:29:35.837Z,16.50
2018-06-28T01:30:10.318Z,16.50
2018-06-28T01:30:44.145Z,16.50
2018-06-28T01:31:18.209Z,16.50
2018-06-28T01:31:52.063Z,16.50
2018-06-28T01:32:26.225Z,16.50
2018-06-28T01:33:00.083Z,16.50
2018-06-28T01:33:33.910Z,16.50
2018-06-28T01:34:08.059Z,16.50
2018-06-28T01:34:41.930Z,16.50
2018-06-28T01:35:16.123Z,16.50
2018-06-28T01:35:50.290Z,16.50
2018-06-28T01:36:24.163Z,16.50
2018-06-28T01:36:58.363Z,16.50
2018-06-28T01:37:32.545Z,16.50
2018-06-28T01:38:06.733Z,16.50
2018-06-28T01:38:40.601Z,16.50
2018-06-28T01:39:14.713Z,16.50
2018-06-28T01:39:49.227Z,16.50
2018-06-28T01:40:23.067Z,16.50
2018-06-28T01:40:57.261Z,16.50
2018-06-28T01:41:42.657Z,16.50
2018-06-28T01:43:31.682Z,16.50
2018-06-28T01:44:06.055Z,16.50
2018-06-28T01:44:39.924Z,16.50
2018-06-28T01:45:14.075Z,16.50
2018-06-28T01:45:47.997Z,16.50
2018-06-28T01:46:22.169Z,16.50
2018-06-28T01:46:56.075Z,16.50
2018-06-28T01:47:30.123Z,16.50
2018-06-28T01:48:04.347Z,16.50
2018-06-28T01:48:38.196Z,16.50
2018-06-28T01:49:12.069Z,16.50
2018-06-28T01:49:45.917Z,16.50
2018-06-28T01:50:19.729Z,16.50
2018-06-28T01:50:54.147Z,16.50
2018-06-28T01:51:28.029Z,16.50
2018-06-28T01:52:02.200Z,16.50
2018-06-28T01:52:36.357Z,16.50
2018-06-28T01:53:10.223Z,16.50
2018-06-28T01:53:44.402Z,16.40
2018-06-28T01:54:18.637Z,16.40
2018-06-28T01:54:52.881Z,16.40
2018-06-28T01:55:26.999Z,16.40
2018-06-28T01:56:01.525Z,16.40
2018-06-28T01:56:35.337Z,16.40
2018-06-28T01:57:09.198Z,16.40
2018-06-28T01:57:43.031Z,16.40
2018-06-28T01:58:17.353Z,16.40
2018-06-28T01:58:51.839Z,16.40
2018-06-28T01:59:25.923Z,16.40
2018-06-28T01:59:59.823Z,16.40
2018-06-28T02:00:33.633Z,16.40
2018-06-28T02:01:08.093Z,16.40
2018-06-28T02:01:42.313Z,16.40
2018-06-28T02:02:16.135Z,16.40
2018-06-28T02:02:50.325Z,16.40
2018-06-28T02:03:24.161Z,16.40
2018-06-28T02:03:58.673Z,16.40
2018-06-28T02:04:32.773Z,16.40
2018-06-28T02:05:06.983Z,16.40
2018-06-28T02:05:41.183Z,16.40
2018-06-28T02:06:15.053Z,16.40
2018-06-28T02:06:49.237Z,16.40
2018-06-28T02:07:23.125Z,16.40
2018-06-28T02:07:57.335Z,16.40
2018-06-28T02:08:31.555Z,16.40
2018-06-28T02:09:09.663Z,16.40
2018-06-28T02:09:43.497Z,16.40
2018-06-28T02:10:17.344Z,16.40
2018-06-28T02:10:51.202Z,16.40
2018-06-28T02:11:25.141Z,16.40
2018-06-28T02:11:59.651Z,16.40
2018-06-28T02:12:33.811Z,16.40
2018-06-28T02:13:07.677Z,16.40
2018-06-28T02:13:41.533Z,16.40
2018-06-28T02:14:15.449Z,16.40
2018-06-28T02:14:49.318Z,16.50
2018-06-28T02:15:23.799Z,16.50
2018-06-28T02:15:57.724Z,16.40
2018-06-28T02:16:31.965Z,16.40
2018-06-28T02:17:06.137Z,16.40
2018-06-28T02:17:40.605Z,16.40
2018-06-28T02:18:14.469Z,16.40
2018-06-28T02:18:48.329Z,16.40
2018-06-28T02:19:22.516Z,16.40
2018-06-28T02:19:56.456Z,16.40
2018-06-28T02:20:30.641Z,16.50
2018-06-28T02:21:04.751Z,16.50
2018-06-28T02:21:38.970Z,16.40
2018-06-28T02:22:12.835Z,16.40
2018-06-28T02:22:46.677Z,16.40
2018-06-28T02:23:20.499Z,16.40
2018-06-28T02:23:54.348Z,16.40
2018-06-28T02:24:28.375Z,16.40
2018-06-28T02:25:02.229Z,16.40
2018-06-28T02:25:36.899Z,16.40
2018-06-28T02:26:11.105Z,16.40
2018-06-28T02:26:45.329Z,16.40
2018-06-28T02:27:19.158Z,16.40
2018-06-28T02:27:53.277Z,16.40
2018-06-28T02:28:27.155Z,16.40
2018-06-28T02:29:01.357Z,16.40
2018-06-28T02:29:35.357Z,16.40
2018-06-28T02:30:09.504Z,16.40
2018-06-28T02:30:43.396Z,16.40
2018-06-28T02:31:17.581Z,16.40
2018-06-28T02:31:51.797Z,16.40
2018-06-28T02:32:25.632Z,16.40
2018-06-28T02:32:59.792Z,16.40
2018-06-28T02:33:33.984Z,16.40
2018-06-28T02:34:08.100Z,16.40
2018-06-28T02:34:41.914Z,16.40
2018-06-28T02:35:16.082Z,16.40
2018-06-28T02:35:50.262Z,16.40
2018-06-28T02:36:24.073Z,16.40
2018-06-28T02:36:58.098Z,16.40
2018-06-28T02:37:31.918Z,16.40
2018-06-28T02:38:05.793Z,16.40
2018-06-28T02:38:39.873Z,16.40
2018-06-28T02:39:13.728Z,16.40
2018-06-28T02:39:47.552Z,16.40
2018-06-28T02:40:21.740Z,16.40
2018-06-28T02:40:55.927Z,16.40
2018-06-28T02:41:29.786Z,16.40
2018-06-28T02:42:04.141Z,16.40
2018-06-28T02:42:37.972Z,16.40
2018-06-28T02:43:12.405Z,16.40
2018-06-28T02:43:46.608Z,16.40
2018-06-28T02:44:20.491Z,16.40
2018-06-28T02:44:54.344Z,16.40
2018-06-28T02:45:28.176Z,16.40
2018-06-28T02:46:02.364Z,16.40
2018-06-28T02:46:36.531Z,16.40
2018-06-28T02:47:10.358Z,16.40
2018-06-28T02:47:44.438Z,16.40
2018-06-28T02:48:18.277Z,16.40
2018-06-28T02:48:52.108Z,16.40
2018-06-28T02:49:26.202Z,16.40
2018-06-28T02:50:00.186Z,16.40
2018-06-28T02:50:34.688Z,16.40
2018-06-28T02:51:08.530Z,16.40
2018-06-28T02:51:42.630Z,16.40
2018-06-28T02:52:16.856Z,16.40
2018-06-28T02:52:50.955Z,16.40
2018-06-28T02:53:24.799Z,16.40
2018-06-28T02:53:58.648Z,16.40
2018-06-28T02:54:32.600Z,16.40
2018-06-28T02:55:06.490Z,16.40
2018-06-28T02:55:40.350Z,16.40
2018-06-28T02:56:15.312Z,16.40
2018-06-28T02:56:49.172Z,16.40
2018-06-28T02:57:23.049Z,16.40
2018-06-28T02:57:57.480Z,16.40
2018-06-28T02:58:31.328Z,16.50
2018-06-28T02:59:05.794Z,16.50
2018-06-28T02:59:39.996Z,16.50
2018-06-28T03:00:13.842Z,16.50
2018-06-28T03:00:48.039Z,16.50
2018-06-28T03:01:22.135Z,16.50
2018-06-28T03:01:55.966Z,16.50
2018-06-28T03:02:30.246Z,16.50
2018-06-28T03:03:04.102Z,16.50
2018-06-28T03:03:38.621Z,16.50
2018-06-28T03:04:12.730Z,16.50
2018-06-28T03:05:20.250Z,16.50
2018-06-28T03:05:54.140Z,16.50
2018-06-28T03:06:27.978Z,16.50
2018-06-28T03:07:01.907Z,16.50
2018-06-28T03:07:35.801Z,16.50
2018-06-28T03:08:09.654Z,16.50
2018-06-28T03:08:44.114Z,16.50
2018-06-28T03:09:17.967Z,16.60
2018-06-28T03:09:51.794Z,16.50
2018-06-28T03:10:25.651Z,16.50
2018-06-28T03:10:59.482Z,16.50
2018-06-28T03:11:33.322Z,16.60
2018-06-28T03:12:07.184Z,16.60
2018-06-28T03:12:41.056Z,16.60
2018-06-28T03:13:14.926Z,16.60
2018-06-28T03:13:49.054Z,16.60
2018-06-28T03:14:23.204Z,16.60
2018-06-28T03:14:57.026Z,16.60
2018-06-28T03:15:31.148Z,16.60
2018-06-28T03:16:05.280Z,16.60
2018-06-28T03:16:39.487Z,16.60
2018-06-28T03:17:13.932Z,16.60
2018-06-28T03:17:47.799Z,16.60
2018-06-28T03:18:21.942Z,16.60
2018-06-28T03:18:56.072Z,16.70
2018-06-28T03:19:29.922Z,16.60
2018-06-28T03:20:03.790Z,16.70
2018-06-28T03:20:38.250Z,16.70
2018-06-28T03:21:12.379Z,16.70
2018-06-28T03:21:46.238Z,16.70
2018-06-28T03:22:21.192Z,16.70
2018-06-28T03:22:55.324Z,16.80
2018-06-28T03:23:29.204Z,16.80
2018-06-28T03:24:03.046Z,16.80
2018-06-28T03:24:37.212Z,16.80
2018-06-28T03:25:11.078Z,16.90
2018-06-28T03:25:45.206Z,16.90
2018-06-28T03:26:19.646Z,17.00
2018-06-28T03:27:27.303Z,17.10
2018-06-28T03:28:01.178Z,17.20
2018-06-28T03:28:35.024Z,17.30
2018-06-28T03:29:08.865Z,17.40
2018-06-28T03:29:43.322Z,17.50
2018-06-28T03:30:17.324Z,17.60
2018-06-28T03:30:51.343Z,17.80
2018-06-28T03:31:25.358Z,17.90
2018-06-28T03:31:59.590Z,17.90
2018-06-28T03:32:33.770Z,18.00
2018-06-28T03:33:07.639Z,18.10
2018-06-28T03:33:41.786Z,18.20
2018-06-28T03:34:15.619Z,18.30
2018-06-28T03:34:49.450Z,18.30
2018-06-28T03:35:23.294Z,18.40
2018-06-28T03:35:57.120Z,18.50
2018-06-28T03:36:31.016Z,18.50
2018-06-28T03:37:04.870Z,18.60
2018-06-28T03:37:38.772Z,18.70
2018-06-28T03:38:12.821Z,18.70
2018-06-28T03:38:47.051Z,18.70
2018-06-28T03:39:54.408Z,18.80
2018-06-28T03:40:28.269Z,18.90
2018-06-28T03:41:02.108Z,18.90
2018-06-28T03:41:35.964Z,18.90
2018-06-28T03:42:10.152Z,19.00
2018-06-28T03:42:44.318Z,19.10
2018-06-28T03:43:18.722Z,19.10
2018-06-28T03:43:52.882Z,19.20
2018-06-28T03:44:26.728Z,19.20
2018-06-28T03:45:34.432Z,19.20
2018-06-28T03:46:08.282Z,19.30
2018-06-28T03:46:42.651Z,19.30
2018-06-28T03:47:17.133Z,19.40
2018-06-28T03:47:50.988Z,19.30
2018-06-28T03:48:24.902Z,19.30
2018-06-28T03:48:59.062Z,19.40
2018-06-28T03:49:32.924Z,19.40
2018-06-28T03:50:06.794Z,19.30
2018-06-28T03:50:40.998Z,19.30
2018-06-28T03:51:14.836Z,19.30
2018-06-28T03:51:49.060Z,19.30
2018-06-28T03:52:23.250Z,19.30
2018-06-28T03:52:57.086Z,19.30
2018-06-28T03:53:30.964Z,19.20
2018-06-28T03:54:05.102Z,19.20
2018-06-28T03:54:39.274Z,19.20
2018-06-28T03:55:46.966Z,19.30
2018-06-28T03:56:20.798Z,19.20
2018-06-28T03:56:54.971Z,19.30
2018-06-28T03:57:28.818Z,19.30
2018-06-28T03:58:03.170Z,19.30
2018-06-28T03:58:37.030Z,19.30
2018-06-28T03:59:11.476Z,19.30
2018-06-28T04:00:19.551Z,19.30
2018-06-28T04:00:53.398Z,19.30
2018-06-28T04:01:27.247Z,19.30
2018-06-28T04:02:01.600Z,19.30
2018-06-28T04:02:35.444Z,19.40
2018-06-28T04:03:09.965Z,19.40
2018-06-28T04:03:44.310Z,19.40
2018-06-28T04:04:18.478Z,19.40
2018-06-28T04:04:52.341Z,19.40
2018-06-28T04:05:26.486Z,19.40
2018-06-28T04:06:00.716Z,19.40
2018-06-28T04:06:34.561Z,19.50
2018-06-28T04:07:08.724Z,19.50
2018-06-28T04:07:42.642Z,19.50
2018-06-28T04:08:16.821Z,19.50
2018-06-28T04:08:50.705Z,19.50
2018-06-28T04:09:24.593Z,19.60
2018-06-28T04:09:58.822Z,19.60
2018-06-28T04:10:32.704Z,19.60
2018-06-28T04:11:06.896Z,19.60
2018-06-28T04:11:40.753Z,19.50
2018-06-28T04:12:14.820Z,19.50
2018-06-28T04:12:48.652Z,19.50
2018-06-28T04:13:22.622Z,19.50
2018-06-28T04:13:56.750Z,19.60
2018-06-28T04:14:30.914Z,19.60
2018-06-28T04:15:04.746Z,19.60
2018-06-28T04:15:38.942Z,19.60
2018-06-28T04:16:12.818Z,19.70
2018-06-28T04:16:46.704Z,19.70
2018-06-28T04:17:22.258Z,19.80
2018-06-28T04:17:56.100Z,19.80
2018-06-28T04:18:30.254Z,19.70
2018-06-28T04:19:04.490Z,19.80
2018-06-28T04:19:41.830Z,19.80
2018-06-28T04:20:15.833Z,19.80
2018-06-28T04:20:50.030Z,19.90
2018-06-28T04:21:24.192Z,19.90
2018-06-28T04:21:58.078Z,20.00
2018-06-28T04:22:32.261Z,20.10
2018-06-28T04:23:06.098Z,20.10
2018-06-28T04:23:39.950Z,20.20
2018-06-28T04:24:14.182Z,20.20
2018-06-28T04:25:21.566Z,20.30
2018-06-28T04:25:55.422Z,20.40
2018-06-28T04:26:29.252Z,20.50
2018-06-28T04:27:36.699Z,20.60
2018-06-28T04:28:10.558Z,20.60
2018-06-28T04:28:44.715Z,20.70
2018-06-28T04:29:18.618Z,20.70
2018-06-28T04:30:27.197Z,20.60
2018-06-28T04:31:01.261Z,20.60
2018-06-28T04:31:35.438Z,20.70
2018-06-28T04:32:09.556Z,20.70
2018-06-28T04:32:43.732Z,20.60
2018-06-28T04:33:51.318Z,20.70
2018-06-28T04:34:25.214Z,20.70
2018-06-28T04:35:32.898Z,20.90
2018-06-28T04:36:07.082Z,20.90
2018-06-28T04:36:41.252Z,20.90
2018-06-28T04:37:15.120Z,21.00
2018-06-28T04:37:49.214Z,21.00
2018-06-28T04:38:23.042Z,21.00
2018-06-28T04:38:57.240Z,21.00
2018-06-28T04:39:31.799Z,21.00
2018-06-28T04:40:39.392Z,21.00
2018-06-28T04:41:13.264Z,21.00
2018-06-28T04:41:47.790Z,21.00
2018-06-28T04:42:21.660Z,21.00
2018-06-28T04:42:55.506Z,21.00
2018-06-28T04:43:29.352Z,21.00
2018-06-28T04:44:03.776Z,21.00
2018-06-28T04:44:38.353Z,21.10
2018-06-28T04:45:12.189Z,21.10
2018-06-28T04:45:46.033Z,21.10
2018-06-28T04:46:19.905Z,21.20
2018-06-28T04:46:54.074Z,21.20
2018-06-28T04:47:27.949Z,21.20
2018-06-28T04:48:02.063Z,21.30
2018-06-28T04:48:35.938Z,21.30
2018-06-28T04:49:09.777Z,21.30
2018-06-28T04:49:43.990Z,21.20
2018-06-28T04:50:52.069Z,21.10
2018-06-28T04:51:26.249Z,21.10
2018-06-28T04:52:00.099Z,21.10
2018-06-28T04:52:33.997Z,21.10
2018-06-28T04:53:07.985Z,21.10
2018-06-28T04:53:41.943Z,21.10
2018-06-28T04:54:16.518Z,21.10
2018-06-28T04:54:50.534Z,21.10
2018-06-28T04:55:58.248Z,21.10
2018-06-28T04:56:32.563Z,21.10
2018-06-28T04:57:06.405Z,21.10
2018-06-28T04:57:40.934Z,21.10
2018-06-28T04:58:48.659Z,21.20
2018-06-28T04:59:22.834Z,21.30
2018-06-28T04:59:56.720Z,21.30
2018-06-28T05:01:04.092Z,21.50
2018-06-28T05:01:37.939Z,21.60
2018-06-28T05:02:11.830Z,21.60
2018-06-28T05:02:45.710Z,21.70
2018-06-28T05:03:19.622Z,21.70
2018-06-28T05:03:53.804Z,21.70
2018-06-28T05:04:27.947Z,21.70
2018-06-28T05:05:01.923Z,21.70
2018-06-28T05:05:36.301Z,21.60
2018-06-28T05:06:10.388Z,21.60
2018-06-28T05:06:44.480Z,21.60
2018-06-28T05:07:53.044Z,21.50
2018-06-28T05:08:26.881Z,21.60
2018-06-28T05:09:00.740Z,21.70
2018-06-28T05:09:34.603Z,21.80
2018-06-28T05:10:08.493Z,21.80
2018-06-28T05:10:42.337Z,21.90
2018-06-28T05:11:16.184Z,21.90
2018-06-28T05:11:50.367Z,21.90
2018-06-28T05:12:24.239Z,21.90
2018-06-28T05:12:58.109Z,21.90
2018-06-28T05:13:32.325Z,21.80
2018-06-28T05:14:06.752Z,21.70
2018-06-28T05:14:40.627Z,21.60
2018-06-28T05:15:14.542Z,21.60
2018-06-28T05:15:48.742Z,21.60
2018-06-28T05:16:22.600Z,21.60
2018-06-28T05:16:56.434Z,21.80
2018-06-28T05:17:30.551Z,21.80
2018-06-28T05:18:04.733Z,21.90
2018-06-28T05:18:39.017Z,22.00
2018-06-28T05:19:13.543Z,22.10
2018-06-28T05:20:21.574Z,22.20
2018-06-28T05:20:55.747Z,22.30
2018-06-28T05:21:29.611Z,22.30
2018-06-28T05:22:03.484Z,22.30
2018-06-28T05:22:37.371Z,22.30
2018-06-28T05:23:11.504Z,22.30
2018-06-28T05:23:45.351Z,22.30
2018-06-28T05:24:19.471Z,22.30
2018-06-28T05:24:53.601Z,22.30
2018-06-28T05:25:27.471Z,22.40
2018-06-28T05:26:01.351Z,22.40
2018-06-28T05:26:35.193Z,22.40
2018-06-28T05:27:09.059Z,22.40
2018-06-28T05:27:43.395Z,22.40
2018-06-28T05:28:17.244Z,22.40
2018-06-28T05:28:51.438Z,22.30
2018-06-28T05:29:25.304Z,22.30
2018-06-28T05:29:59.150Z,22.30
2018-06-28T05:30:33.653Z,22.30
2018-06-28T05:31:07.871Z,22.20
2018-06-28T05:31:42.383Z,22.20
2018-06-28T05:32:16.576Z,22.20
2018-06-28T05:32:50.788Z,22.20
2018-06-28T05:33:24.684Z,22.20
2018-06-28T05:33:58.576Z,22.30
2018-06-28T05:34:32.815Z,22.30
2018-06-28T05:35:07.237Z,22.40
2018-06-28T05:35:41.133Z,22.60
2018-06-28T05:36:15.708Z,22.60
2018-06-28T05:37:23.082Z,22.90
2018-06-28T05:37:56.939Z,23.00
2018-06-28T05:38:30.978Z,23.00
2018-06-28T05:39:07.564Z,23.20
2018-06-28T05:39:42.264Z,23.30
2018-06-28T05:40:16.417Z,23.20
2018-06-28T05:40:50.280Z,23.30
2018-06-28T05:41:24.473Z,23.20
2018-06-28T05:41:58.305Z,23.20
2018-06-28T05:42:32.187Z,23.20
2018-06-28T05:43:06.029Z,23.20
2018-06-28T05:43:39.881Z,23.20
2018-06-28T05:44:14.005Z,23.30
2018-06-28T05:44:47.882Z,23.30
2018-06-28T05:45:21.861Z,23.30
2018-06-28T05:45:55.992Z,23.30
2018-06-28T05:46:30.529Z,23.30
2018-06-28T05:47:04.768Z,23.20
2018-06-28T05:47:38.811Z,23.20
2018-06-28T05:48:13.314Z,23.10
2018-06-28T05:48:47.161Z,23.10
2018-06-28T05:49:21.367Z,23.20
2018-06-28T05:49:55.557Z,23.20
2018-06-28T05:50:29.389Z,23.30
2018-06-28T05:51:03.268Z,23.40
2018-06-28T05:51:37.146Z,23.40
2018-06-28T05:52:11.104Z,23.50
2018-06-28T05:52:44.934Z,23.50
2018-06-28T05:53:19.133Z,23.60
2018-06-28T05:53:52.988Z,23.60
2018-06-28T05:54:27.001Z,23.60
2018-06-28T05:55:00.895Z,23.60
2018-06-28T05:55:35.349Z,23.50
2018-06-28T05:56:09.265Z,23.50
2018-06-28T05:56:43.485Z,23.40
2018-06-28T05:57:17.333Z,23.30
2018-06-28T05:57:51.967Z,23.20
2018-06-28T05:58:26.188Z,23.20
2018-06-28T05:59:00.034Z,23.20
2018-06-28T05:59:34.689Z,23.10
2018-06-28T06:00:08.549Z,23.10
2018-06-28T06:00:43.091Z,23.20
2018-06-28T06:01:17.011Z,23.10
2018-06-28T06:01:51.061Z,23.00
2018-06-28T06:02:24.976Z,23.00
2018-06-28T06:02:58.845Z,23.00
2018-06-28T06:03:33.049Z,23.00
2018-06-28T06:04:06.887Z,23.00
2018-06-28T06:04:40.941Z,23.00
2018-06-28T06:05:15.155Z,23.00
2018-06-28T06:05:49.731Z,23.10
2018-06-28T06:06:24.569Z,23.20
2018-06-28T06:06:58.703Z,23.20
2018-06-28T06:07:32.568Z,23.20
2018-06-28T06:08:06.803Z,23.00
2018-06-28T06:08:40.661Z,23.00
2018-06-28T06:09:14.503Z,23.00
2018-06-28T06:09:48.701Z,22.90
2018-06-28T06:10:23.025Z,22.90
2018-06-28T06:10:57.453Z,23.00
2018-06-28T06:11:31.655Z,22.90
2018-06-28T06:12:06.359Z,22.90
2018-06-28T06:12:40.213Z,22.90
2018-06-28T06:13:14.106Z,22.90
2018-06-28T06:13:48.875Z,22.80
2018-06-28T06:14:22.735Z,22.80
2018-06-28T06:14:56.635Z,22.80
2018-06-28T06:15:30.919Z,22.80
2018-06-28T06:16:04.791Z,22.90
2018-06-28T06:16:39.373Z,23.00
2018-06-28T06:17:13.572Z,23.00
2018-06-28T06:17:47.416Z,23.10
2018-06-28T06:18:54.797Z,23.10
2018-06-28T06:19:28.713Z,23.10
2018-06-28T06:20:05.413Z,23.10
2018-06-28T06:20:39.813Z,23.00
2018-06-28T06:21:13.724Z,23.00
2018-06-28T06:21:47.670Z,23.00
2018-06-28T06:22:21.543Z,23.00
2018-06-28T06:22:55.401Z,22.90
2018-06-28T06:23:29.275Z,22.80
2018-06-28T06:24:03.893Z,22.70
2018-06-28T06:25:11.494Z,22.60
2018-06-28T06:25:45.390Z,22.50
2018-06-28T06:26:19.525Z,22.40
2018-06-28T06:26:54.090Z,22.30
2018-06-28T06:27:27.953Z,22.20
2018-06-28T06:28:02.149Z,22.00
2018-06-28T06:28:36.023Z,22.00
2018-06-28T06:29:10.223Z,21.90
2018-06-28T06:29:44.105Z,21.80
2018-06-28T06:30:17.969Z,21.80
2018-06-28T06:30:52.519Z,21.70
2018-06-28T06:31:26.649Z,21.60
2018-06-28T06:32:00.952Z,21.50
2018-06-28T06:32:34.825Z,21.50
2018-06-28T06:33:09.355Z,21.40
2018-06-28T06:33:43.227Z,21.40
2018-06-28T06:34:17.071Z,21.30
2018-06-28T06:34:50.925Z,21.20
2018-06-28T06:35:25.131Z,21.20
2018-06-28T06:35:58.997Z,21.10
2018-06-28T06:36:33.194Z,21.00
2018-06-28T06:37:07.075Z,21.00
2018-06-28T06:37:40.918Z,21.00
2018-06-28T06:38:15.431Z,20.90
2018-06-28T06:39:23.507Z,20.90
2018-06-28T06:39:57.669Z,20.80
2018-06-28T06:40:31.828Z,20.80
2018-06-28T06:41:06.151Z,20.80
2018-06-28T06:41:40.078Z,20.80
2018-06-28T06:42:14.499Z,20.80
2018-06-28T06:42:48.711Z,20.80
2018-06-28T06:43:22.558Z,20.80
2018-06-28T06:43:56.419Z,20.80
2018-06-28T06:44:30.269Z,20.80
2018-06-28T06:45:04.509Z,20.80
2018-06-28T06:45:38.429Z,20.80
2018-06-28T06:46:12.621Z,20.70
2018-06-28T06:46:46.745Z,20.70
2018-06-28T06:47:21.055Z,20.70
2018-06-28T06:47:54.902Z,20.70
2018-06-28T06:48:29.105Z,20.60
2018-06-28T06:49:03.269Z,20.70
2018-06-28T06:49:37.469Z,20.60
2018-06-28T06:50:11.373Z,20.70
2018-06-28T06:50:45.565Z,20.60
2018-06-28T06:51:20.132Z,20.60
2018-06-28T06:51:54.765Z,20.70
2018-06-28T06:52:28.949Z,20.70
2018-06-28T06:53:03.151Z,20.60
2018-06-28T06:53:36.995Z,20.60
2018-06-28T06:54:10.877Z,20.60
2018-06-28T06:54:44.719Z,20.60
2018-06-28T06:55:18.925Z,20.50
2018-06-28T06:55:52.939Z,20.50
2018-06-28T06:56:26.812Z,20.50
2018-06-28T06:57:01.027Z,20.40
2018-06-28T06:57:35.289Z,20.40
2018-06-28T06:58:09.311Z,20.40
2018-06-28T06:58:43.169Z,20.40
2018-06-28T06:59:17.359Z,20.40
2018-06-28T06:59:51.190Z,20.40
2018-06-28T07:00:25.359Z,20.40
2018-06-28T07:00:59.542Z,20.40
2018-06-28T07:01:33.379Z,20.40
2018-06-28T07:02:41.445Z,20.40
2018-06-28T07:03:15.651Z,20.40
2018-06-28T07:03:49.623Z,20.40
2018-06-28T07:04:23.933Z,20.40
2018-06-28T07:04:57.979Z,20.40
2018-06-28T07:05:32.163Z,20.40
2018-06-28T07:06:06.041Z,20.40
2018-06-28T07:06:39.894Z,20.40
2018-06-28T07:07:14.405Z,20.40
2018-06-28T07:07:48.627Z,20.40
2018-06-28T07:08:22.500Z,20.40
2018-06-28T07:08:56.333Z,20.40
2018-06-28T07:09:30.183Z,20.40
2018-06-28T07:10:04.316Z,20.50
2018-06-28T07:10:38.173Z,20.50
2018-06-28T07:11:12.210Z,20.60
2018-06-28T07:11:46.359Z,20.60
2018-06-28T07:12:20.227Z,20.70
2018-06-28T07:12:54.143Z,20.70
2018-06-28T07:13:27.986Z,20.60
2018-06-28T07:14:01.855Z,20.50
2018-06-28T07:14:35.673Z,20.50
2018-06-28T07:15:09.525Z,20.40
2018-06-28T07:15:43.413Z,20.40
2018-06-28T07:16:17.257Z,20.40
2018-06-28T07:16:51.387Z,20.40
2018-06-28T07:17:25.302Z,20.40
2018-06-28T07:18:00.097Z,20.30
2018-06-28T07:18:33.963Z,20.30
2018-06-28T07:19:08.149Z,20.30
2018-06-28T07:19:41.993Z,20.30
2018-06-28T07:20:16.153Z,20.30
2018-06-28T07:20:50.105Z,20.30
2018-06-28T07:21:57.479Z,20.30
2018-06-28T07:22:31.357Z,20.30
2018-06-28T07:23:06.418Z,20.30
2018-06-28T07:23:40.466Z,20.30
2018-06-28T07:24:14.641Z,20.40
2018-06-28T07:24:49.093Z,20.40
2018-06-28T07:25:23.127Z,20.40
2018-06-28T07:25:57.390Z,20.50
2018-06-28T07:26:31.282Z,20.50
2018-06-28T07:27:05.523Z,20.50
2018-06-28T07:27:39.365Z,20.50
2018-06-28T07:28:13.569Z,20.60
2018-06-28T07:28:47.761Z,20.60
2018-06-28T07:29:21.955Z,20.60
2018-06-28T07:29:56.177Z,20.60
2018-06-28T07:30:29.999Z,20.60
2018-06-28T07:31:37.683Z,20.60
2018-06-28T07:32:45.439Z,20.50
2018-06-28T07:33:19.337Z,20.40
2018-06-28T07:33:53.881Z,20.40
2018-06-28T07:35:01.924Z,20.50
2018-06-28T07:35:35.792Z,20.50